Texas Logo

Frisco, TX Single Family Real Estate Listings

1206 Total Real Estate Listings * Click on table heading to sort
Date Posted Property Type Style Address Price Living Area Lot Size Price/Sq Ft.
2018-11-28 Single Family Traditional 6137 Union Creek Drive Frisco, TX 75036 $650,000 4,165 sq. ft. 13,068 sq. ft. $156
2018-11-27 Single Family Traditional 7642 Ravenhill Drive Frisco, TX 75035 $357,500 2,580 sq. ft. 7,405 sq. ft. $139
2018-11-27 Single Family Traditional 6767 Calm Water Court Frisco, TX 75036 $299,900 1,457 sq. ft. 7,841 sq. ft. $206
2018-11-27 Single Family Traditional 10433 Winter Green Drive Frisco, TX 75035 $679,000 4,182 sq. ft. 7,405 sq. ft. $162
2018-11-27 Single Family Traditional 1327 Spirit Falls Drive Frisco, TX 75033 $379,000 3,516 sq. ft. 7,841 sq. ft. $108
2018-11-27 Single Family Traditional 14930 Devonshire Lane Frisco, TX 75035 $724,900 4,109 sq. ft. 8,712 sq. ft. $176
2018-11-26 Single Family Traditional 6283 Bristol Place Frisco, TX 75034 $1,499,000 6,600 sq. ft. 17,424 sq. ft. $227
2018-11-26 Single Family Traditional 1040 Stardrift Avenue Frisco, TX 75036 $759,000 4,335 sq. ft. 9,148 sq. ft. $175
2018-11-26 Single Family Traditional 6476 Forefront Avenue Frisco, TX 75036 $975,000 5,320 sq. ft. 17,424 sq. ft. $183
2018-11-25 Single Family Traditional 4776 Glen Heather Drive Frisco, TX 75034 $470,000 3,626 sq. ft. 8,712 sq. ft. $130
2018-11-23 Single Family Traditional 10312 Ashmont Drive Frisco, TX 75035 $260,000 1,735 sq. ft. 7,405 sq. ft. $150
2018-11-23 Single Family Traditional 13251 Fowler Drive Frisco, TX 75035 $304,500 2,617 sq. ft. 6,534 sq. ft. $116
2018-11-23 Single Family 10203 Belfort Drive Frisco, TX 75035 $299,999 2,142 sq. ft. 21,780 sq. ft. $140
2018-11-23 Single Family 11601 Summer Springs Drive Frisco, TX 75036 $325,000 2,551 sq. ft. 6,098 sq. ft. $127
2018-11-23 Single Family Traditional 1107 Elk Mound Drive Frisco, TX 75033 $450,000 4,608 sq. ft. 8,276 sq. ft. $98
2018-11-23 Single Family Traditional 2756 Barnhill Lane Frisco, TX 75034 $440,000 3,530 sq. ft. 6,970 sq. ft. $125
2018-11-22 Single Family Traditional 2906 Hancock Drive Frisco, TX 75033 $400,000 3,300 sq. ft. 6,098 sq. ft. $121
2018-11-21 Single Family Traditional 9722 Butterfly Trail Frisco, TX 75035 $358,000 3,046 sq. ft. 7,405 sq. ft. $118
2018-11-21 Single Family Traditional 10489 Mountain Laurel Lane Frisco, TX 75033 $1,225,000 5,517 sq. ft. 11,761 sq. ft. $222
2018-11-21 Single Family Traditional 1930 Passion Flower Road Frisco, TX 75033 $589,990 4,018 sq. ft. 8,276 sq. ft. $147
2018-11-21 Single Family Mediterranean; Traditional 5683 Buena Vista Drive Frisco, TX 75034 $1,777,000 6,301 sq. ft. 16,553 sq. ft. $282
2018-11-21 Single Family Traditional 11505 Sadie Street Frisco, TX 75036 $315,000 1,874 sq. ft. 6,970 sq. ft. $168
2018-11-21 Single Family 8208 Turtle Beach Road Frisco, TX 75036 $479,604 2,524 sq. ft. 8,276 sq. ft. $190
2018-11-21 Single Family 11494 Jasper Drive Frisco, TX 75035 $429,900 4,336 sq. ft. 9,583 sq. ft. $99
2018-11-20 Single Family Traditional 14836 Turnbridge Drive Frisco, TX 75035 $479,000 4,031 sq. ft. 8,712 sq. ft. $119
2018-11-20 Single Family Traditional 4115 Crescent Way Frisco, TX 75034 $364,900 2,594 sq. ft. 8,276 sq. ft. $141
2018-11-20 Single Family Traditional 16463 Willowick Lane Frisco, TX 75068 $596,100 4,019 sq. ft. 10,019 sq. ft. $148
2018-11-20 Single Family Traditional 16363 Moss Haven Lane Frisco, TX 75068 $606,135 4,019 sq. ft. 10,019 sq. ft. $151
2018-11-20 Single Family 13156 Bold Forbes Street Frisco, TX 75035 $625,000 3,895 sq. ft. 7,405 sq. ft. $160
2018-11-20 Single Family Traditional 10492 Smarty Jones Street Frisco, TX 75035 $709,454 4,109 sq. ft. 7,405 sq. ft. $173
2018-11-20 Single Family Traditional 12221 Salt Grass Lane Frisco, TX 75035 $450,000 3,897 sq. ft. 7,405 sq. ft. $115
2018-11-20 Single Family Traditional 31 Painted Rock Court Frisco, TX 75033 $365,000 3,188 sq. ft. 6,534 sq. ft. $114
2018-11-19 Single Family Contemporary/Modern 11210 Clearstream Lane Frisco, TX 75035 $339,000 1,951 sq. ft. 7,405 sq. ft. $174
2018-11-19 Single Family Traditional 4020 Shadewell Street Frisco, TX 75036 $344,900 3,386 sq. ft. 6,534 sq. ft. $102
2018-11-19 Single Family Traditional 12200 Curry Creek Drive Frisco, TX 75035 $432,439 2,382 sq. ft. 6,534 sq. ft. $182
2018-11-19 Single Family Traditional 7565 Hidden Cove Lane Frisco, TX 75034 $514,900 4,024 sq. ft. 8,276 sq. ft. $128
2018-11-19 Single Family Traditional 6371 Culverdale Lane Frisco, TX 75034 $600,814 3,502 sq. ft. 6,534 sq. ft. $172
2018-11-19 Single Family Traditional 6000 Culverdale Lane Frisco, TX 75034 $621,369 3,841 sq. ft. 6,534 sq. ft. $162
2018-11-19 Single Family Traditional 3148 Kentshire Lane Frisco, TX 75034 $670,000 4,397 sq. ft. 9,148 sq. ft. $152
2018-11-19 Single Family Traditional 12763 Brook Ridge Drive Frisco, TX 75035 $525,000 3,769 sq. ft. 8,276 sq. ft. $139
2018-11-17 Single Family Traditional 6548 Bolliger Court Frisco, TX 75035 $332,900 3,015 sq. ft. 9,148 sq. ft. $110
2018-11-17 Single Family Traditional 5008 Iroquois Drive Frisco, TX 75034 $539,900 3,854 sq. ft. 11,761 sq. ft. $140
2018-11-17 Single Family Traditional 1541 Yuma Drive Frisco, TX 75033 $895,000 5,266 sq. ft. 18,295 sq. ft. $170
2018-11-17 Single Family 3155 Villandry Lane Frisco, TX 75033 $365,000 2,837 sq. ft. 7,405 sq. ft. $129
2018-11-17 Single Family Contemporary/Modern; Mid-Century Modern; Traditional 12480 Blue Ridge Drive Frisco, TX 75033 $324,900 2,232 sq. ft. 8,712 sq. ft. $146
2018-11-17 Single Family 8450 Nicholson Drive Frisco, TX 75036 $329,900 2,011 sq. ft. 6,534 sq. ft. $164
2018-11-17 Single Family Traditional 15617 Renshaw Way Frisco, TX 75036 $345,000 2,920 sq. ft. 5,663 sq. ft. $118
2018-11-16 Single Family 7990 Bishop Drive Frisco, TX 75036 $414,900 2,996 sq. ft. 9,583 sq. ft. $138
2018-11-16 Single Family 7593 Rawlins Lane Frisco, TX 75036 $630,000 5,202 sq. ft. 9,148 sq. ft. $121
2018-11-16 Single Family Traditional 11878 Coronado Trail Frisco, TX 75033 $775,000 5,201 sq. ft. 12,197 sq. ft. $149
2018-11-16 Single Family Traditional 14250 Winecup Drive Frisco, TX 75033 $499,990 3,301 sq. ft. 7,841 sq. ft. $151
2018-11-16 Single Family Traditional 1191 Rolling Thunder Road Frisco, TX 75036 $550,000 3,479 sq. ft. 6,534 sq. ft. $158
2018-11-16 Single Family Traditional 7222 Greystone Lane Frisco, TX 75034 $859,900 4,854 sq. ft. 11,761 sq. ft. $177
2018-11-16 Single Family Traditional 6 Colonial Court Frisco, TX 75034 $749,900 3,767 sq. ft. 16,988 sq. ft. $199
2018-11-16 Single Family Traditional 10638 Bancroft Lane Frisco, TX 75035 $428,800 3,612 sq. ft. 6,534 sq. ft. $119
2018-11-16 Single Family Traditional 12760 Ridge Spring Drive Frisco, TX 75035 $489,000 4,150 sq. ft. 8,712 sq. ft. $118
2018-11-16 Single Family Ranch 8800 Woodstream Drive Frisco, TX 75034 $235,000 1,631 sq. ft. 9,583 sq. ft. $144
2018-11-16 Single Family 12869 Terlingua Creek Drive Frisco, TX 75033 $810,000 4,377 sq. ft. 9,148 sq. ft. $185
2018-11-16 Single Family Traditional 41 Misty Pond Drive Frisco, TX 75034 $449,900 3,360 sq. ft. 6,098 sq. ft. $134
2018-11-16 Single Family Traditional 1617 Kingfisher Lane Frisco, TX 75033 $384,000 3,068 sq. ft. 8,276 sq. ft. $125
2018-11-16 Single Family Traditional 11428 Stephenville Drive Frisco, TX 75035 $389,999 3,355 sq. ft. 6,534 sq. ft. $116
2018-11-16 Single Family Traditional 7516 Parkbrook Drive Frisco, TX 75034 $265,000 1,662 sq. ft. 8,276 sq. ft. $159
2018-11-16 Single Family Traditional 7431 Trull Brook Lane Frisco, TX 75036 $250,000 1,156 sq. ft. 5,663 sq. ft. $216
2018-11-16 Single Family Traditional 3470 Shaddock Creek Lane Frisco, TX 75033 $689,900 4,363 sq. ft. 11,761 sq. ft. $158
2018-11-16 Single Family 8226 Turtle Beach Road Frisco, TX 75036 $536,996 2,800 sq. ft. 8,276 sq. ft. $192
2018-11-16 Single Family Traditional 7171 Saint Augustine Drive Frisco, TX 75033 $314,000 2,654 sq. ft. 6,098 sq. ft. $118
2018-11-16 Single Family Traditional 11025 La Grange Drive Frisco, TX 75035 $355,900 2,734 sq. ft. 8,276 sq. ft. $130
2018-11-16 Single Family Traditional 2832 Hidden Knoll Trail Frisco, TX 75034 $430,000 3,681 sq. ft. 6,534 sq. ft. $117
2018-11-16 Single Family Traditional 2051 Westwood Court Frisco, TX 75033 $375,000 2,567 sq. ft. 10,454 sq. ft. $146
2018-11-15 Single Family Traditional 16130 Buffalo Grass Rd Frisco, TX 75033 $598,990 3,786 sq. ft. $158
2018-11-15 Single Family Traditional 11608 Amber Valley Drive Frisco, TX 75035 $300,000 1,860 sq. ft. 9,148 sq. ft. $161
2018-11-15 Single Family Ranch Frisco, TX $279,995 1,712 sq. ft. 7,405 sq. ft. $164
2018-11-15 Single Family Traditional 11284 Dorchester Lane Frisco, TX 75033 $525,000 4,028 sq. ft. 7,405 sq. ft. $130
2018-11-15 Single Family Traditional 14305 Danehurst Lane Frisco, TX 75035 $579,049 3,259 sq. ft. 6,970 sq. ft. $178
2018-11-15 Single Family Traditional 9435 Bramble Mead Lane Frisco, TX 75035 $573,162 3,259 sq. ft. 6,970 sq. ft. $176
2018-11-15 Single Family Traditional 14177 Berryfield Lane Frisco, TX 75035 $591,429 3,259 sq. ft. 6,970 sq. ft. $181
2018-11-15 Single Family Traditional 14158 Danehurst Lane Frisco, TX 75035 $486,019 2,053 sq. ft. 6,970 sq. ft. $237
2018-11-15 Single Family 10204 Napa Valley Drive Frisco, TX 75035 $349,800 2,222 sq. ft. 6,098 sq. ft. $157
2018-11-15 Single Family Traditional 15925 Rockingham Street Frisco, TX 75036 $319,900 2,727 sq. ft. 5,663 sq. ft. $117
2018-11-15 Single Family Traditional 11388 Blackhawk Drive Frisco, TX 75033 $299,900 1,952 sq. ft. 6,098 sq. ft. $154
2018-11-15 Single Family English; Traditional 3948 Ferndale Lane Frisco, TX 75034 $899,900 4,825 sq. ft. 12,197 sq. ft. $187
2018-11-14 Single Family 5517 Hill Haven Court Frisco, TX 75035 $289,900 1,730 sq. ft. 6,970 sq. ft. $168
2018-11-14 Single Family Ranch 13661 Mill Town Drive Frisco, TX 75033 $269,900 1,825 sq. ft. 6,098 sq. ft. $148
2018-11-14 Single Family Mediterranean; Traditional 5105 Monterey Drive Frisco, TX 75034 $2,275,000 8,044 sq. ft. 23,958 sq. ft. $283
2018-11-14 Single Family Traditional 9226 Snowberry Drive Frisco, TX 75035 $279,000 1,956 sq. ft. 10,454 sq. ft. $143
2018-11-14 Single Family Traditional 7261 Juniper Drive Frisco, TX 75033 $300,000 2,455 sq. ft. 6,534 sq. ft. $122
2018-11-14 Single Family 7305 Beckington Drive Frisco, TX 75035 $355,900 2,738 sq. ft. 6,534 sq. ft. $130
2018-11-14 Single Family Traditional 1 Saint Andrews Court Frisco, TX 75034 $1,075,000 5,748 sq. ft. 29,621 sq. ft. $187
2018-11-13 Single Family 1365 Dulverton Drive Frisco, TX 75033 $549,997 3,434 sq. ft. 10,890 sq. ft. $160
2018-11-13 Single Family 16326 Radstock Drive Frisco, TX 75033 $572,940 3,886 sq. ft. 10,890 sq. ft. $147
2018-11-13 Single Family 1383 Dulverton Drive Frisco, TX 75033 $523,545 3,291 sq. ft. 10,890 sq. ft. $159
2018-11-13 Single Family 16308 Radstock Boulevard Frisco, TX 75033 $592,688 4,088 sq. ft. 10,890 sq. ft. $145
2018-11-13 Single Family Traditional 9583 Robinwoods Drive Frisco, TX 75035 $489,000 3,526 sq. ft. 8,712 sq. ft. $139
2018-11-12 Single Family Traditional 7808 Barn Swallow Drive Frisco, TX 75036 $694,821 4,197 sq. ft. 7,841 sq. ft. $166
2018-11-12 Single Family Traditional 7824 Hackamore Street Frisco, TX 75036 $649,698 3,601 sq. ft. 7,841 sq. ft. $180
2018-11-12 Single Family 9785 Hickory Hill Road Frisco, TX 75035 $557,309 3,534 sq. ft. 12,197 sq. ft. $158
2018-11-12 Single Family 9639 Maple Hill Lane Frisco, TX 75035 $553,259 3,534 sq. ft. 12,197 sq. ft. $157
2018-11-12 Single Family 9671 Maple Hill Lane Frisco, TX 75035 $509,921 2,814 sq. ft. 12,197 sq. ft. $181
2018-11-12 Single Family 9759 Hickory Hill Road Frisco, TX 75035 $499,999 2,814 sq. ft. 11,326 sq. ft. $178
2018-11-12 Single Family Traditional 12080 Tivoli Lane Frisco, TX 75033 $359,000 2,188 sq. ft. 8,712 sq. ft. $164
2018-11-12 Single Family Traditional 2517 Brentwood Drive Frisco, TX 75034 $375,000 2,768 sq. ft. 7,405 sq. ft. $135
2018-11-12 Single Family Traditional 15305 Plum Lane Frisco, TX 75072 $497,500 3,751 sq. ft. 87,120 sq. ft. $133
2018-11-12 Single Family Traditional 2157 Fox Crossing Lane Frisco, TX 75036 $356,000 2,565 sq. ft. 5,663 sq. ft. $139
2018-11-11 Single Family Traditional 13959 Valley Mills Drive Frisco, TX 75033 $305,000 3,148 sq. ft. 6,098 sq. ft. $97
2018-11-10 Single Family Traditional 14252 Eastwick Court Frisco, TX 75035 $519,500 3,480 sq. ft. 7,841 sq. ft. $149
2018-11-10 Single Family Traditional 37 Secluded Pond Drive Frisco, TX 75034 $509,000 3,329 sq. ft. 5,227 sq. ft. $153
2018-11-10 Single Family Traditional 10808 Cardiff Lane Frisco, TX 75035 $469,000 3,415 sq. ft. 8,712 sq. ft. $137
2018-11-10 Single Family Traditional 13158 Mardi Gras Lane Frisco, TX 75035 $749,500 5,138 sq. ft. 10,019 sq. ft. $146
2018-11-09 Single Family Traditional 4641 Shadow Ridge Drive Frisco, TX 75034 $565,000 3,100 sq. ft. 10,890 sq. ft. $182
2018-11-09 Single Family 5077 Oak Knoll Lane Frisco, TX 75034 $1,249,000 4,742 sq. ft. 11,761 sq. ft. $263
2018-11-09 Single Family Traditional 14911 Wintergrass Road Frisco, TX 75035 $589,000 2,829 sq. ft. 8,712 sq. ft. $208
2018-11-09 Single Family Mediterranean 13190 Tall Grass Trail Frisco, TX 75035 $695,000 3,259 sq. ft. 10,454 sq. ft. $213
2018-11-09 Single Family Traditional 9888 Promontory Drive Frisco, TX 75035 $499,000 4,597 sq. ft. 7,841 sq. ft. $109
2018-11-09 Single Family Traditional 2751 Crown Colony Drive Frisco, TX 75033 $379,900 2,567 sq. ft. 6,098 sq. ft. $148
2018-11-09 Single Family Traditional 3274 Cedar Creek Trail Frisco, TX 75034 $465,000 4,039 sq. ft. 7,841 sq. ft. $115
2018-11-09 Single Family Traditional 11105 Canoe Road Frisco, TX 75035 $299,888 2,314 sq. ft. 8,712 sq. ft. $130
2018-11-09 Single Family Traditional 10300 Burgundy Drive Frisco, TX 75035 $279,900 1,792 sq. ft. 5,227 sq. ft. $156
2018-11-09 Single Family Ranch; Traditional 11501 Amber Valley Drive Frisco, TX 75035 $299,000 1,860 sq. ft. 6,534 sq. ft. $161
2018-11-09 Single Family Traditional 10812 Alexandria Drive Frisco, TX 75035 $283,000 1,693 sq. ft. 6,098 sq. ft. $167
2018-11-08 Single Family Traditional 7576 Rockyford Drive Frisco, TX 75035 $524,999 3,769 sq. ft. 7,405 sq. ft. $139
2018-11-08 Single Family Traditional 8148 Bobwhite Drive Frisco, TX 75034 $248,000 1,709 sq. ft. 9,148 sq. ft. $145
2018-11-08 Single Family 9939 Cambridge Drive Frisco, TX 75035 $269,000 1,684 sq. ft. 6,534 sq. ft. $160
2018-11-08 Single Family 13274 Decidedly Drive Frisco, TX 75035 $545,990 3,522 sq. ft. 7,405 sq. ft. $155
2018-11-08 Single Family 13513 Tabasco Cat Trail Frisco, TX 75035 $579,990 3,677 sq. ft. 6,970 sq. ft. $158
2018-11-08 Single Family 13049 Iron Liege Drive Frisco, TX 75035 $625,990 3,601 sq. ft. 7,405 sq. ft. $174
2018-11-08 Single Family 13121 Iron Liege Frisco, TX 75035 $604,990 4,074 sq. ft. 7,405 sq. ft. $148
2018-11-08 Single Family 1089 Palmflower Avenue Frisco, TX 75036 $799,000 4,735 sq. ft. 15,682 sq. ft. $169
2018-11-08 Single Family Traditional 12313 Canoe Frisco, TX 75035 $299,000 2,160 sq. ft. 6,970 sq. ft. $138
2018-11-08 Single Family French 1771 Labrador Run Drive Frisco, TX 75033 $424,000 3,655 sq. ft. 6,970 sq. ft. $116
2018-11-08 Single Family Traditional 10404 Vintage Drive Frisco, TX 75035 $265,000 1,746 sq. ft. 6,534 sq. ft. $152
2018-11-07 Single Family Traditional 12401 Cajun Drive Frisco, TX 75035 $309,900 1,906 sq. ft. 6,970 sq. ft. $163
2018-11-07 Single Family Traditional 1006 Colleton Lane Frisco, TX 75033 $359,900 3,216 sq. ft. 8,276 sq. ft. $112
2018-11-07 Single Family Traditional 4520 Lakeview Drive Frisco, TX 75036 $325,000 2,709 sq. ft. 6,970 sq. ft. $120
2018-11-07 Single Family Traditional 4212 Live Springs Road Frisco, TX 75036 $619,000 4,184 sq. ft. 12,632 sq. ft. $148
2018-11-07 Single Family Traditional 13062 Galaxy Drive Frisco, TX 75035 $275,000 3,445 sq. ft. 9,148 sq. ft. $80
2018-11-06 Single Family Traditional 5791 Midnight Moon Drive Frisco, TX 75036 $599,000 4,278 sq. ft. 8,712 sq. ft. $140
2018-11-06 Single Family Traditional 9516 Winter Park Drive Frisco, TX 75035 $275,000 2,177 sq. ft. 6,970 sq. ft. $126
2018-11-06 Single Family Traditional 5020 Seashore Lane Frisco, TX 75036 $318,000 2,462 sq. ft. 6,098 sq. ft. $129
2018-11-06 Single Family Traditional 11780 Creekwood Drive Frisco, TX 75035 $289,990 1,960 sq. ft. 8,276 sq. ft. $148
2018-11-05 Single Family Traditional 6201 Monticello Drive Frisco, TX 75035 $299,900 1,952 sq. ft. 6,534 sq. ft. $154
2018-11-05 Single Family Contemporary/Modern; Traditional 4224 Newman Boulevard Frisco, TX 75033 $1,795,000 7,780 sq. ft. 20,473 sq. ft. $231
2018-11-05 Single Family Traditional 14939 Foxbriar Lane Frisco, TX 75035 $509,900 3,429 sq. ft. 8,712 sq. ft. $149
2018-11-05 Single Family 1960 Dowelling Drive Frisco, TX 75036 $455,000 3,839 sq. ft. 9,148 sq. ft. $119
2018-11-05 Single Family Traditional 6118 Autumnwood Drive Frisco, TX 75035 $395,000 2,988 sq. ft. 16,117 sq. ft. $132
2018-11-05 Single Family Ranch; Traditional 3152 Hampshire Court Frisco, TX 75034 $450,000 2,230 sq. ft. 6,970 sq. ft. $202
2018-11-04 Single Family Traditional 10877 Prescott Drive Frisco, TX 75033 $360,000 3,236 sq. ft. 6,098 sq. ft. $111
2018-11-04 Single Family Traditional 1778 Prairie Creek Trail Frisco, TX 75033 $640,000 4,654 sq. ft. 12,197 sq. ft. $138
2018-11-03 Single Family Traditional 3726 Briar Tree Lane Frisco, TX 75034 $899,000 4,901 sq. ft. 12,197 sq. ft. $183
2018-11-03 Single Family Mediterranean 2280 Creekridge Drive Frisco, TX 75034 $5,295,000 14,788 sq. ft. 79,279 sq. ft. $358
2018-11-03 Single Family 3739 Capitol Lane Frisco, TX 75034 $400,000 3,561 sq. ft. 6,098 sq. ft. $112
2018-11-03 Single Family 11801 Beach Street Frisco, TX 75036 $330,000 2,021 sq. ft. 5,663 sq. ft. $163
2018-11-03 Single Family 2957 Pack Saddle Way Frisco, TX 75034 $479,900 4,212 sq. ft. 7,405 sq. ft. $114
2018-11-03 Single Family Traditional 13073 Broadhurst Drive Frisco, TX 75033 $379,900 2,853 sq. ft. 6,098 sq. ft. $133
2018-11-03 Single Family A-Frame 2127 Mackinac Drive Frisco, TX 75033 $344,900 2,894 sq. ft. 9,148 sq. ft. $119
2018-11-03 Single Family Traditional 11200 Amistad Drive Frisco, TX 75036 $309,900 2,063 sq. ft. 6,534 sq. ft. $150
2018-11-02 Single Family Traditional 1329 Tomah Drive Frisco, TX 75033 $387,000 3,365 sq. ft. 9,148 sq. ft. $115
2018-11-02 Single Family Traditional 9977 Bradford Grove Drive Frisco, TX 75035 $409,900 3,476 sq. ft. 7,405 sq. ft. $118
2018-11-02 Single Family 13094 Twelve Oaks Avenue Frisco, TX 75035 $649,990 3,965 sq. ft. 8,712 sq. ft. $164
2018-11-02 Single Family 12990 Twelve Oaks Avenue Frisco, TX 75035 $622,990 3,904 sq. ft. 7,405 sq. ft. $160
2018-11-02 Single Family 13117 Caterpillar Drive Frisco, TX 75035 $714,990 4,068 sq. ft. 7,405 sq. ft. $176
2018-11-02 Single Family 12938 Twelve Oaks Avenue Frisco, TX 75035 $659,990 3,853 sq. ft. 7,405 sq. ft. $171
2018-11-02 Single Family Traditional 5958 Haley Way Frisco, TX 75034 $1,050,000 6,215 sq. ft. 14,810 sq. ft. $169
2018-11-02 Single Family 7254 Kentwood Drive Frisco, TX 75034 $689,900 3,705 sq. ft. 11,761 sq. ft. $186
2018-11-02 Single Family Traditional 11596 Mesa Verde Drive Frisco, TX 75033 $515,000 3,985 sq. ft. 10,454 sq. ft. $129
2018-11-02 Single Family Traditional 2956 Rising Tide Drive Frisco, TX 75036 $318,000 1,704 sq. ft. 6,534 sq. ft. $187
2018-11-02 Single Family Traditional 5503 Norfolk Lane Frisco, TX 75035 $399,900 3,234 sq. ft. 10,454 sq. ft. $124
2018-11-02 Single Family Traditional 2507 Luna Vista Lane Frisco, TX 75036 $475,000 2,346 sq. ft. 9,583 sq. ft. $202
2018-11-02 Single Family Traditional 2002 Brazos Drive Frisco, TX 75033 $365,000 2,960 sq. ft. 6,534 sq. ft. $123
2018-11-02 Single Family Traditional 1076 Frisco Ranch Road Frisco, TX 75033 $419,990 3,253 sq. ft. 6,534 sq. ft. $129
2018-11-02 Single Family Traditional 11406 Sunrise Lane Frisco, TX 75035 $345,000 2,233 sq. ft. 8,276 sq. ft. $154
2018-11-02 Single Family Traditional 735 Burnswick Isles Way Frisco, TX 75036 $369,900 1,832 sq. ft. 8,712 sq. ft. $202
2018-11-02 Single Family Traditional 2557 Foxcreek Drive Frisco, TX 75033 $385,000 2,885 sq. ft. 8,712 sq. ft. $133
2018-11-02 Single Family 7945 Hickory Street Frisco, TX 75034 $269,000 2,211 sq. ft. 7,405 sq. ft. $122
2018-11-02 Single Family Traditional 2588 Creek Drive Frisco, TX 75033 $739,899 4,681 sq. ft. 13,068 sq. ft. $158
2018-11-02 Single Family Traditional 14894 Speargrass Frisco, TX 75033 $490,328 3,326 sq. ft. $147
2018-11-02 Single Family Traditional 2437 Thorntree Drive Frisco, TX 75033 $355,000 2,579 sq. ft. 6,534 sq. ft. $138
2018-11-02 Single Family Mediterranean; Southwestern; Spanish 5113 Oak Knoll Lane Frisco, TX 75034 $974,999 4,794 sq. ft. 12,197 sq. ft. $203
2018-11-02 Single Family 11808 Kurth Drive Frisco, TX 75036 $318,000 2,573 sq. ft. 5,663 sq. ft. $124
2018-11-02 Single Family Traditional 4116 Netherfield Road Frisco, TX 75036 $299,900 2,033 sq. ft. 6,098 sq. ft. $148
2018-11-02 Single Family 8016 Stern Street Frisco, TX 75035 $294,000 2,045 sq. ft. 6,534 sq. ft. $144
2018-11-02 Single Family Traditional 8113 Stern Street Frisco, TX 75035 $293,900 1,802 sq. ft. 6,098 sq. ft. $163
2018-11-02 Single Family Traditional 13931 Doonan Crossing Frisco, TX 75035 $499,000 3,108 sq. ft. 7,405 sq. ft. $161
2018-11-02 Single Family Traditional 10973 Prescott Drive Frisco, TX 75033 $379,900 3,468 sq. ft. 6,098 sq. ft. $110
2018-11-02 Single Family 8986 Cantina Bay Lane Frisco, TX 75036 $278,889 1,600 sq. ft. 5,227 sq. ft. $174
2018-11-02 Single Family 1820 Marsh Point Drive Frisco, TX 75036 $293,180 1,600 sq. ft. 4,792 sq. ft. $183
2018-11-02 Single Family 1836 Marsh Point Drive Frisco, TX 75036 $284,860 1,550 sq. ft. 4,792 sq. ft. $184
2018-11-02 Single Family 7511 Wright Drive Frisco, TX 75035 $540,000 3,524 sq. ft. 7,841 sq. ft. $153
2018-11-02 Single Family Traditional 11241 La Grange Drive Frisco, TX 75035 $365,000 2,742 sq. ft. 7,405 sq. ft. $133
2018-11-02 Single Family Traditional 12201 Alexandria Drive Frisco, TX 75035 $419,000 3,429 sq. ft. 8,712 sq. ft. $122
2018-11-02 Single Family Traditional 10485 Chantry Lane Frisco, TX 75035 $419,900 3,214 sq. ft. 6,534 sq. ft. $131
2018-11-02 Single Family Traditional 2140 Jaguar Drive Frisco, TX 75033 $339,900 3,462 sq. ft. 6,098 sq. ft. $98
2018-11-01 Single Family 7702 Belcrest Drive Frisco, TX 75034 $299,000 1,836 sq. ft. 7,841 sq. ft. $163
2018-11-01 Single Family Traditional 2313 Bannister Drive Frisco, TX 75036 $529,000 4,471 sq. ft. 9,583 sq. ft. $118
2018-11-01 Single Family 13311 Thunder Gulch Way Frisco, TX 75035 $713,097 3,112 sq. ft. 9,583 sq. ft. $229
2018-11-01 Single Family Traditional 12494 Scottswood Frisco, TX 75035 $564,241 3,938 sq. ft. 10,890 sq. ft. $143
2018-11-01 Single Family Traditional 4414 Ruth Borchardt Drive Frisco, TX 75035 $379,900 2,908 sq. ft. 6,970 sq. ft. $131
2018-11-01 Single Family Traditional 12379 Foothill Lane Frisco, TX 75035 $280,000 1,881 sq. ft. 6,970 sq. ft. $149
2018-11-01 Single Family 5944 Matterhorn Drive Frisco, TX 75035 $678,266 3,744 sq. ft. 8,712 sq. ft. $181
2018-11-01 Single Family Traditional 10128 Gentry Drive Frisco, TX 75035 $499,900 4,010 sq. ft. 7,405 sq. ft. $125
2018-11-01 Single Family 14050 Red Oak Circle Frisco, TX 75071 $369,000 2,227 sq. ft. 43,560 sq. ft. $166
2018-11-01 Single Family Traditional 8693 Portola Drive Frisco, TX 75035 $442,948 2,609 sq. ft. 10,890 sq. ft. $170
2018-11-01 Single Family Ranch; Traditional 11989 Brownwood Drive Frisco, TX 75035 $325,000 2,004 sq. ft. 6,534 sq. ft. $162
2018-11-01 Single Family Traditional 12639 Akenside Road Frisco, TX 75035 $434,274 2,662 sq. ft. 10,890 sq. ft. $163
2018-11-01 Single Family Traditional 11613 Rocky Point Drive Frisco, TX 75035 $285,000 1,613 sq. ft. 7,841 sq. ft. $177
2018-11-01 Single Family Traditional 7954 Shield Road Frisco, TX 75035 $272,000 1,470 sq. ft. 4,792 sq. ft. $185
2018-11-01 Single Family Traditional 3748 Bloomfield Lane Frisco, TX 75033 $749,500 5,177 sq. ft. 11,761 sq. ft. $145
2018-11-01 Single Family Traditional 530 Quarter Horse Lane Frisco, TX 75036 $566,900 2,479 sq. ft. $229
2018-11-01 Single Family Traditional 12212 Candle Island Drive Frisco, TX 75036 $330,000 2,519 sq. ft. 6,098 sq. ft. $131
2018-11-01 Single Family Traditional 2360 Purdue Street Frisco, TX 75034 $775,000 4,929 sq. ft. 10,454 sq. ft. $157
2018-11-01 Single Family Traditional 2850 Doe Creek Trail Frisco, TX 75034 $329,900 2,192 sq. ft. 6,534 sq. ft. $150
2018-11-01 Single Family Traditional 4011 Bryson Drive Frisco, TX 75035 $369,997 2,717 sq. ft. 9,148 sq. ft. $136
2018-11-01 Single Family Traditional 11305 Amistad Drive Frisco, TX 75036 $316,000 2,487 sq. ft. 5,663 sq. ft. $127
2018-11-01 Single Family Traditional 2748 Spanish Moss Trail Frisco, TX 75033 $375,000 2,236 sq. ft. 5,663 sq. ft. $168
2018-10-31 Single Family 5942 Cheyenne Way Frisco, TX 75034 $300,000 2,164 sq. ft. 5,663 sq. ft. $139
2018-10-31 Single Family Traditional 9821 Carmel Valley Drive Frisco, TX 75035 $280,000 1,710 sq. ft. 5,227 sq. ft. $164
2018-10-31 Single Family Traditional 8322 Alderon Lane Frisco, TX 75036 $539,900 4,004 sq. ft. 10,019 sq. ft. $135
2018-10-31 Single Family Traditional 11034 Clearstream Lane Frisco, TX 75035 $335,000 2,961 sq. ft. 7,405 sq. ft. $113
2018-10-31 Single Family Traditional 7680 Red Clover Drive Frisco, TX 75033 $449,900 3,259 sq. ft. 8,712 sq. ft. $138
2018-10-31 Single Family Traditional 5803 Chamberlyne Drive Frisco, TX 75034 $1,995,000 7,957 sq. ft. 21,780 sq. ft. $251
2018-10-31 Single Family Traditional 644 Thoroughbred Avenue Frisco, TX 75036 $529,000 3,479 sq. ft. 6,970 sq. ft. $152
2018-10-31 Single Family Traditional 13739 Gibraltar Lane Frisco, TX 75035 $520,000 3,709 sq. ft. $140
2018-10-31 Single Family Traditional 10549 Alviso Road Frisco, TX 75035 $575,000 4,097 sq. ft. $140
2018-10-31 Single Family Traditional 5880 Arabian Way Frisco, TX 75034 $335,000 3,094 sq. ft. 5,663 sq. ft. $108
2018-10-31 Single Family Traditional 2124 Hideaway Lane Frisco, TX 75036 $529,900 4,154 sq. ft. 6,970 sq. ft. $128
2018-10-31 Single Family Traditional 7190 Saint Augustine Drive Frisco, TX 75033 $299,900 2,456 sq. ft. 6,098 sq. ft. $122
2018-10-30 Single Family French 13309 Santa Isabel Drive Frisco, TX 75033 $854,562 4,394 sq. ft. 10,890 sq. ft. $194
2018-10-30 Single Family Traditional 3764 Covedale Boulevard Frisco, TX 75034 $733,498 4,172 sq. ft. 8,276 sq. ft. $176
2018-10-30 Single Family Traditional 13422 Orb Drive Frisco, TX 75035 $1,224,990 5,391 sq. ft. 13,068 sq. ft. $227
2018-10-30 Single Family Traditional 3604 Fordham Street Frisco, TX 75036 $340,000 3,328 sq. ft. 6,534 sq. ft. $102
2018-10-30 Single Family Traditional 16597 Sweetgum Road Frisco, TX 75033 $540,900 3,145 sq. ft. $172
2018-10-30 Single Family Traditional 8112 Dock Street Frisco, TX 75035 $289,900 2,045 sq. ft. 6,098 sq. ft. $142
2018-10-30 Single Family 9901 Buckingham Lane Frisco, TX 75035 $279,000 1,572 sq. ft. 6,534 sq. ft. $177
2018-10-30 Single Family 8435 Twistpine Frisco, TX 75035 $674,900 3,650 sq. ft. 8,276 sq. ft. $185
2018-10-30 Single Family 15133 Viburnum Frisco, TX 75035 $760,900 3,400 sq. ft. 9,583 sq. ft. $224
2018-10-30 Single Family 15183 Spider Lily Frisco, TX 75035 $819,900 4,259 sq. ft. 9,583 sq. ft. $193
2018-10-29 Single Family French 6514 Curwen Lane Frisco, TX 75034 $649,995 3,463 sq. ft. 6,534 sq. ft. $188
2018-10-29 Single Family Contemporary/Modern 2368 Courtland Drive Frisco, TX 75034 $2,100,000 6,205 sq. ft. 28,750 sq. ft. $338
2018-10-29 Single Family Traditional 2381 Brookdale Drive Frisco, TX 75036 $389,900 2,206 sq. ft. 7,405 sq. ft. $177
2018-10-29 Single Family Traditional 13039 Alta Badia Avenue Frisco, TX 75035 $679,000 4,181 sq. ft. 7,405 sq. ft. $162
2018-10-29 Single Family Traditional 4004 Wellesley Avenue Frisco, TX 75034 $503,281 2,747 sq. ft. 4,356 sq. ft. $183
2018-10-28 Single Family 4282 Roaring Fork Lane Frisco, TX 75033 $900,000 4,481 sq. ft. 13,939 sq. ft. $201
2018-10-28 Single Family Traditional 6580 Jamestown Road Frisco, TX 75035 $798,800 5,055 sq. ft. 13,068 sq. ft. $158
2018-10-28 Single Family Traditional 4000 Wavertree Road Frisco, TX 75036 $329,900 2,709 sq. ft. 5,663 sq. ft. $122
2018-10-28 Single Family Traditional 10101 Burgundy Drive Frisco, TX 75035 $279,900 1,719 sq. ft. 6,534 sq. ft. $163
2018-10-27 Single Family 6082 Blazing Star Road Frisco, TX 75036 $445,000 3,868 sq. ft. 9,148 sq. ft. $115
2018-10-27 Single Family Traditional 5404 Baton Rouge Boulevard Frisco, TX 75035 $335,000 2,214 sq. ft. 6,970 sq. ft. $151
2018-10-26 Single Family Traditional 7618 Pacific Dunes Drive Frisco, TX 75036 $274,900 1,533 sq. ft. 8,712 sq. ft. $179
2018-10-26 Single Family Traditional 14604 Huffman Lane Frisco, TX 75035 $625,000 3,564 sq. ft. 18,295 sq. ft. $175
2018-10-26 Single Family Traditional 7698 Milestone Ridge Drive Frisco, TX 75035 $275,000 1,834 sq. ft. 6,534 sq. ft. $150
2018-10-26 Single Family Traditional 10741 Castle Drive Frisco, TX 75035 $299,900 2,120 sq. ft. 6,098 sq. ft. $141
2018-10-26 Single Family 6787 Trout Lane Frisco, TX 75036 $289,000 1,452 sq. ft. 7,405 sq. ft. $199
2018-10-26 Single Family Traditional 8365 Biscayne Street Frisco, TX 75035 $279,900 1,824 sq. ft. 7,405 sq. ft. $153
2018-10-26 Single Family Victorian 9121 6th Street Frisco, TX 75033 $619,999 2,068 sq. ft. 17,860 sq. ft. $300
2018-10-26 Single Family Traditional 3883 Newman Boulevard Frisco, TX 75033 $2,700,000 9,222 sq. ft. 20,909 sq. ft. $293
2018-10-26 Single Family 723 Seymour Drive Frisco, TX 75033 $467,000 4,850 sq. ft. 8,712 sq. ft. $96
2018-10-26 Single Family Traditional 10609 Birmingham Drive Frisco, TX 75035 $310,000 1,888 sq. ft. 6,534 sq. ft. $164
2018-10-26 Single Family Traditional 2760 Enclave Drive Frisco, TX 75034 $449,000 3,297 sq. ft. 10,019 sq. ft. $136
2018-10-26 Single Family Traditional 1028 Knightsbridge Drive Frisco, TX 75036 $454,900 4,206 sq. ft. 8,276 sq. ft. $108
2018-10-26 Single Family Traditional 12012 Melrose Lane Frisco, TX 75035 $299,500 2,394 sq. ft. 8,712 sq. ft. $125
2018-10-26 Single Family Traditional 13938 Wainhouse Road Frisco, TX 75035 $599,000 4,098 sq. ft. 7,405 sq. ft. $146
2018-10-26 Single Family 4619 Venetian Way Frisco, TX 75034 $405,000 2,773 sq. ft. 6,534 sq. ft. $146
2018-10-25 Single Family 13213 Dolomite Drive Frisco, TX 75035 $795,800 4,616 sq. ft. 9,148 sq. ft. $172
2018-10-25 Single Family Traditional 4602 Parma Lane Frisco, TX 75034 $515,000 3,525 sq. ft. 10,019 sq. ft. $146
2018-10-25 Single Family Traditional 4912 Mcclellan Drive Frisco, TX 75036 $334,900 2,063 sq. ft. 6,098 sq. ft. $162
2018-10-25 Single Family Traditional 8209 Dock Street Frisco, TX 75035 $279,900 2,417 sq. ft. 6,534 sq. ft. $116
2018-10-25 Single Family Traditional 1703 Bentley Drive Frisco, TX 75033 $315,000 2,881 sq. ft. 9,583 sq. ft. $109
2018-10-25 Single Family Traditional 13967 Hot Springs Lane Frisco, TX 75035 $429,900 3,732 sq. ft. 7,841 sq. ft. $115
2018-10-25 Single Family Traditional 13246 Bayfield Drive Frisco, TX 75033 $424,900 3,746 sq. ft. 9,583 sq. ft. $113
2018-10-25 Single Family Traditional 11869 Chaucer Drive Frisco, TX 75035 $425,000 3,796 sq. ft. 9,148 sq. ft. $112
2018-10-25 Single Family Traditional 7930 Hogan Court Frisco, TX 75036 $270,000 1,508 sq. ft. 5,663 sq. ft. $179
2018-10-25 Single Family Traditional 10507 Capistrano Frisco, TX 75035 $560,000 3,899 sq. ft. $144
2018-10-25 Single Family Traditional 3906 Navarro Way Frisco, TX 75034 $379,900 2,638 sq. ft. 5,663 sq. ft. $144
2018-10-25 Single Family Contemporary/Modern 2723 Kettle Creek Drive Frisco, TX 75034 $599,900 4,077 sq. ft. 7,405 sq. ft. $147
2018-10-24 Single Family Traditional 1285 Discovery Bay Drive Frisco, TX 75036 $599,900 2,363 sq. ft. 9,148 sq. ft. $254
2018-10-24 Single Family Traditional 7600 Birmingham Forest Drive Frisco, TX 75036 $305,000 1,467 sq. ft. 6,098 sq. ft. $208
2018-10-24 Single Family Traditional 1001 Southampton Drive Frisco, TX 75036 $385,000 3,224 sq. ft. 9,583 sq. ft. $119
2018-10-24 Single Family Traditional 13512 Morley Drive Frisco, TX 75035 $479,900 4,062 sq. ft. 8,712 sq. ft. $118
2018-10-24 Single Family Traditional 11866 Casa Grande Trail Frisco, TX 75033 $624,500 5,047 sq. ft. 13,939 sq. ft. $124
2018-10-24 Single Family Traditional 8604 Prescott Circle Frisco, TX 75033 $410,000 2,913 sq. ft. 8,712 sq. ft. $141
2018-10-24 Single Family Traditional 3951 Attu Drive Frisco, TX 75033 $778,676 3,994 sq. ft. 10,890 sq. ft. $195
2018-10-24 Single Family Traditional 13715 Gibraltar Lane Frisco, TX 75034 $575,000 4,342 sq. ft. $132
2018-10-24 Single Family Traditional 11536 La Salle Frisco, TX 75035 $510,000 2,677 sq. ft. $191
2018-10-24 Single Family Traditional 11510 La Salle Frisco, TX 75035 $492,000 2,954 sq. ft. $167
2018-10-24 Single Family Traditional 13198 Clarendon Drive Frisco, TX 75035 $535,950 4,235 sq. ft. 18,295 sq. ft. $127
2018-10-24 Single Family Traditional 3137 Fayette Trail Frisco, TX 75034 $625,000 5,141 sq. ft. 9,583 sq. ft. $122
2018-10-24 Single Family Contemporary/Modern; Traditional 3814 Fairfield Place Frisco, TX 75035 $339,000 1,889 sq. ft. 6,970 sq. ft. $179
2018-10-23 Single Family 7809 Whirlwind Drive Frisco, TX 75036 $259,900 1,467 sq. ft. 5,663 sq. ft. $177
2018-10-23 Single Family 14067 Steadman Drive Frisco, TX 75035 $520,950 4,264 sq. ft. 8,712 sq. ft. $122
2018-10-23 Single Family Traditional 13020 Edgemont Lane Frisco, TX 75035 $510,950 4,450 sq. ft. 10,890 sq. ft. $115
2018-10-23 Single Family Traditional 1471 Coneflower Drive Frisco, TX 75033 $410,000 2,355 sq. ft. $174
2018-10-23 Single Family Traditional 13815 Monte Vista Drive Frisco, TX 75035 $495,950 3,986 sq. ft. 8,712 sq. ft. $124
2018-10-23 Single Family Traditional 1493 Coneflower Drive Frisco, TX 75033 $430,000 2,677 sq. ft. $161
2018-10-23 Single Family Traditional 14616 Speargrass Drive Frisco, TX 75033 $470,866 2,637 sq. ft. $179
2018-10-23 Single Family Traditional 8646 Bullrush Road Frisco, TX 75035 $597,675 3,296 sq. ft. 6,970 sq. ft. $181
2018-10-23 Single Family Traditional 1209 Gray Fox Frisco, TX 75033 $454,607 2,355 sq. ft. $193
2018-10-23 Single Family Traditional 1414 Stagecoach Way Frisco, TX 75033 $445,000 3,525 sq. ft. 7,405 sq. ft. $126
2018-10-23 Single Family Traditional 1417 Coneflower Drive Frisco, TX 75033 $504,885 3,539 sq. ft. $143
2018-10-23 Single Family Traditional 9747 Staffordshire Road Frisco, TX 75035 $464,000 3,579 sq. ft. 6,098 sq. ft. $130
2018-10-22 Single Family Traditional 1453 Coneflower Drive Frisco, TX 75033 $470,000 3,430 sq. ft. $137
2018-10-22 Single Family Traditional 13264 Torrington Drive Frisco, TX 75035 $538,888 4,273 sq. ft. 10,019 sq. ft. $126
2018-10-22 Single Family Colonial 7791 Whirlwind Drive Frisco, TX 75036 $265,000 1,161 sq. ft. 5,663 sq. ft. $228
2018-10-22 Single Family Traditional 7604 Scarborough Lane Frisco, TX 75035 $250,000 1,780 sq. ft. 6,534 sq. ft. $140
2018-10-22 Single Family Traditional 16293 Barton Creek Lane Frisco, TX 75068 $479,324 3,564 sq. ft. 10,454 sq. ft. $134
2018-10-22 Single Family Traditional 16248 Willowick Lane Frisco, TX 75068 $484,413 3,564 sq. ft. 8,712 sq. ft. $136
2018-10-22 Single Family Traditional 13842 Matthew Lane Frisco, TX 75035 $425,000 3,207 sq. ft. 8,276 sq. ft. $133
2018-10-21 Single Family Colonial 5773 Hidden Creek Lane Frisco, TX 75034 $395,000 3,667 sq. ft. 5,663 sq. ft. $108
2018-10-21 Single Family Traditional 16005 Weymouth Drive Frisco, TX 75036 $289,000 2,050 sq. ft. 6,098 sq. ft. $141
2018-10-21 Single Family 7520 Tournament Road Frisco, TX 75035 $194,900 1,228 sq. ft. 3,049 sq. ft. $159
2018-10-20 Single Family Traditional 15932 Dorrington Drive Frisco, TX 75036 $299,900 2,037 sq. ft. 6,534 sq. ft. $147
2018-10-20 Single Family 12926 Sellaronda Frisco, TX 75035 $589,900 3,992 sq. ft. 8,276 sq. ft. $148
2018-10-20 Single Family Traditional 1558 Birmingham Forest Drive Frisco, TX 75036 $289,900 1,532 sq. ft. 7,841 sq. ft. $189
2018-10-19 Single Family 10826 Wilton Drive Frisco, TX 75035 $399,900 3,553 sq. ft. 7,405 sq. ft. $113
2018-10-19 Single Family Traditional 1504 Sandstone Drive Frisco, TX 75034 $549,000 4,305 sq. ft. 9,148 sq. ft. $128
2018-10-19 Single Family Traditional 10845 Cardiff Lane Frisco, TX 75035 $459,000 3,350 sq. ft. 7,405 sq. ft. $137
2018-10-19 Single Family Spanish 1056 Steel Dust Road Frisco, TX 75036 $995,000 5,448 sq. ft. 13,068 sq. ft. $183
2018-10-19 Single Family Traditional 1669 Angel Falls Drive Frisco, TX 75036 $379,900 2,976 sq. ft. 7,405 sq. ft. $128
2018-10-19 Single Family Traditional 6927 Single Creek Trail Frisco, TX 75035 $389,900 2,612 sq. ft. 6,534 sq. ft. $149
2018-10-19 Single Family Traditional 9503 Saddle Drive Frisco, TX 75035 $350,000 2,626 sq. ft. 12,197 sq. ft. $133
2018-10-19 Single Family Traditional 1539 Celestial Lane Frisco, TX 75033 $399,990 2,602 sq. ft. 6,534 sq. ft. $154
2018-10-19 Single Family Traditional 1043 Centennial Mill Lane Frisco, TX 75036 $399,900 1,983 sq. ft. 7,405 sq. ft. $202
2018-10-19 Single Family Traditional 13685 Lampton Circle Frisco, TX 75035 $469,900 3,640 sq. ft. 7,841 sq. ft. $129
2018-10-19 Single Family Traditional 1284 Coneflower Drive Frisco, TX 75033 $404,421 3,314 sq. ft. $122
2018-10-19 Single Family Traditional 1268 Coneflower Drive Frisco, TX 75033 $402,512 2,704 sq. ft. $149
2018-10-19 Single Family Traditional 636 Quail Creek Drive Frisco, TX 75036 $469,900 3,485 sq. ft. 8,712 sq. ft. $135
2018-10-19 Single Family Traditional 5119 Linda Lane Frisco, TX 75033 $420,000 3,042 sq. ft. 10,454 sq. ft. $138
2018-10-19 Single Family 8961 Twin Pines Lane Frisco, TX 75036 $265,110 1,550 sq. ft. 5,227 sq. ft. $171
2018-10-19 Single Family 10817 Huntington Road Frisco, TX 75035 $276,000 1,817 sq. ft. 6,098 sq. ft. $152
2018-10-19 Single Family Traditional 12104 Riviera Road Frisco, TX 75035 $285,000 1,617 sq. ft. 6,534 sq. ft. $176
2018-10-19 Single Family Traditional 2192 Dampton Drive Frisco, TX 75033 $589,000 4,089 sq. ft. 9,583 sq. ft. $144
2018-10-19 Single Family Traditional 10408 Megan Court Frisco, TX 75035 $285,000 1,768 sq. ft. 8,276 sq. ft. $161
2018-10-18 Single Family Traditional 1003 Carrington Greens Drive Frisco, TX 75036 $345,000 1,786 sq. ft. 6,534 sq. ft. $193
2018-10-18 Single Family Traditional 11466 La Salle Frisco, TX 75035 $560,000 3,899 sq. ft. $144
2018-10-18 Single Family Traditional 10579 Capistrano Frisco, TX 75034 $540,000 4,038 sq. ft. $134
2018-10-18 Single Family Traditional 9993 Robinwoods Drive Frisco, TX 75035 $489,000 3,602 sq. ft. 9,148 sq. ft. $136
2018-10-18 Single Family 15094 Rosario Road Frisco, TX 75035 $392,770 2,740 sq. ft. 10,019 sq. ft. $143
2018-10-18 Single Family Traditional 6374 Culverdale Lane Frisco, TX 75034 $470,000 3,026 sq. ft. 6,534 sq. ft. $155
2018-10-18 Single Family Traditional 2447 Angel Falls Drive Frisco, TX 75036 $389,900 3,008 sq. ft. 8,712 sq. ft. $130
2018-10-18 Single Family Ranch 12230 Half Hitch Trail Frisco, TX 75035 $349,900 1,926 sq. ft. 15,246 sq. ft. $182
2018-10-18 Single Family 2151 Harbor Pointe Drive Frisco, TX 75036 $392,439 2,300 sq. ft. 6,098 sq. ft. $171
2018-10-18 Single Family Traditional 2787 Carmack Drive Frisco, TX 75033 $349,000 2,456 sq. ft. 9,583 sq. ft. $142
2018-10-18 Single Family 10218 Ferry Farm Lane Frisco, TX 75035 $334,900 2,643 sq. ft. 6,970 sq. ft. $127
2018-10-17 Single Family Traditional 13715 Gibraltar Lane Frisco, TX 75035 $575,000 4,436 sq. ft. 11,326 sq. ft. $130
2018-10-17 Single Family Traditional 7920 Southmark Drive Frisco, TX 75035 $349,900 2,635 sq. ft. 4,792 sq. ft. $133
2018-10-17 Single Family 10562 Shire View Drive Frisco, TX 75035 $435,000 4,090 sq. ft. 6,970 sq. ft. $106
2018-10-17 Single Family 6917 Cinnabar Drive Frisco, TX 75035 $342,000 2,363 sq. ft. 7,405 sq. ft. $145
2018-10-17 Single Family Traditional 5402 Golden Sunset Court Frisco, TX 75036 $665,000 4,937 sq. ft. 10,454 sq. ft. $135
2018-10-16 Single Family Tudor 13305 Terlingua Drive Frisco, TX 75033 $659,000 2,991 sq. ft. 10,890 sq. ft. $220
2018-10-16 Single Family Traditional 15008 Camden Lane Frisco, TX 75035 $634,900 4,524 sq. ft. 15,246 sq. ft. $140
2018-10-16 Single Family Contemporary/Modern 623 Laverton Drive Frisco, TX 75036 $720,000 4,161 sq. ft. 8,712 sq. ft. $173
2018-10-16 Single Family Traditional 5705 Lafayette Drive Frisco, TX 75035 $434,900 3,801 sq. ft. 7,405 sq. ft. $114
2018-10-15 Single Family Traditional 15463 Carnoustie Lane Frisco, TX 75035 $450,000 3,548 sq. ft. 6,970 sq. ft. $127
2018-10-15 Single Family Traditional 15671 Carnoustie Lane Frisco, TX 75035 $436,000 3,318 sq. ft. 6,970 sq. ft. $131
2018-10-15 Single Family Traditional 11012 Hermitage Lane Frisco, TX 75035 $405,000 3,028 sq. ft. 8,276 sq. ft. $134
2018-10-15 Single Family Traditional 7957 Shackelford Drive Frisco, TX 75035 $699,000 4,310 sq. ft. 9,583 sq. ft. $162
2018-10-15 Single Family Traditional 7680 Tournament Road Frisco, TX 75035 $315,000 2,262 sq. ft. 6,098 sq. ft. $139
2018-10-14 Single Family Traditional 11202 Raveneaux Drive Frisco, TX 75034 $399,000 3,647 sq. ft. 6,970 sq. ft. $109
2018-10-13 Single Family 5526 Braemar Drive Frisco, TX 75034 $599,000 4,178 sq. ft. 16,553 sq. ft. $143
2018-10-13 Single Family Traditional 5409 Baton Rouge Boulevard Frisco, TX 75035 $317,900 2,206 sq. ft. 6,098 sq. ft. $144
2018-10-13 Single Family Traditional 2262 Feathering Drive Frisco, TX 75036 $299,000 1,573 sq. ft. 4,792 sq. ft. $190
2018-10-13 Single Family Traditional 4703 Haverford Drive Frisco, TX 75034 $565,000 4,527 sq. ft. 8,712 sq. ft. $125
2018-10-12 Single Family Traditional 12305 Alexandria Drive Frisco, TX 75035 $327,000 2,259 sq. ft. 6,970 sq. ft. $145
2018-10-12 Single Family Traditional 2039 Hague Drive Frisco, TX 75033 $489,900 4,336 sq. ft. 11,326 sq. ft. $113
2018-10-12 Single Family Traditional 12716 Feathering Drive Frisco, TX 75036 $250,000 1,768 sq. ft. 5,227 sq. ft. $141
2018-10-12 Single Family Traditional 4457 Florentine Lane Frisco, TX 75034 $549,900 3,766 sq. ft. 7,841 sq. ft. $146
2018-10-12 Single Family Spanish 5 Cypress Point Court Frisco, TX 75034 $575,000 3,053 sq. ft. 7,841 sq. ft. $188
2018-10-12 Single Family Traditional 2768 Cedar Wood Drive Frisco, TX 75033 $379,000 2,850 sq. ft. 5,663 sq. ft. $133
2018-10-12 Single Family Traditional 7110 Stoneridge Drive Frisco, TX 75034 $309,900 2,218 sq. ft. 7,841 sq. ft. $140
2018-10-12 Single Family 2340 Greymoore Drive Frisco, TX 75034 $645,000 3,906 sq. ft. 7,405 sq. ft. $165
2018-10-12 Single Family Traditional 11819 Kingsville Drive Frisco, TX 75035 $349,900 2,121 sq. ft. 6,970 sq. ft. $165
2018-10-12 Single Family Traditional 6093 Stanton Place Frisco, TX 75033 $425,000 3,599 sq. ft. 7,405 sq. ft. $118
2018-10-12 Single Family 12170 Limestone Drive Frisco, TX 75033 $379,900 3,144 sq. ft. 6,970 sq. ft. $121
2018-10-12 Single Family Traditional 1745 Bunkhouse Road Frisco, TX 75036 $850,000 4,846 sq. ft. 11,761 sq. ft. $175
2018-10-12 Single Family Traditional 2235 Brookdale Drive Frisco, TX 75036 $393,500 2,096 sq. ft. 6,534 sq. ft. $188
2018-10-12 Single Family Traditional 4512 Bayport Drive Frisco, TX 75036 $280,000 1,868 sq. ft. 5,663 sq. ft. $150
2018-10-12 Single Family 6726 Ash Street Frisco, TX 75034 $185,000 1,284 sq. ft. 7,405 sq. ft. $144
2018-10-12 Single Family 10508 Killdeer Drive Frisco, TX 75035 $499,000 4,281 sq. ft. 7,841 sq. ft. $117
2018-10-12 Single Family Traditional 11393 Clover Knoll Drive Frisco, TX 75035 $329,900 2,672 sq. ft. 5,663 sq. ft. $123
2018-10-11 Single Family Traditional 11348 Lockshire Drive Frisco, TX 75035 $279,900 1,594 sq. ft. 6,098 sq. ft. $176
2018-10-11 Single Family Contemporary/Modern 11555 Capitan Lane Frisco, TX 75033 $750,000 5,003 sq. ft. 12,632 sq. ft. $150
2018-10-11 Single Family Traditional 818 Quarter Horse Lane Frisco, TX 75036 $647,900 3,517 sq. ft. $184
2018-10-11 Single Family Traditional 14878 Ireland Lane Frisco, TX 75035 $528,900 3,938 sq. ft. 8,712 sq. ft. $134
2018-10-11 Single Family Traditional 14822 Ireland Lane Frisco, TX 75035 $564,900 3,857 sq. ft. 8,712 sq. ft. $146
2018-10-11 Single Family Traditional 16276 Willowick Lane Frisco, TX 75068 $399,850 2,310 sq. ft. 8,712 sq. ft. $173
2018-10-11 Single Family Traditional 1200 Patch Grove Drive Frisco, TX 75033 $429,900 4,000 sq. ft. 6,970 sq. ft. $107
2018-10-11 Single Family Contemporary/Modern; Traditional 2896 Yarra Lane Frisco, TX 75034 $750,000 4,258 sq. ft. 8,712 sq. ft. $176
2018-10-11 Single Family Traditional 8513 Turnberry Drive Frisco, TX 75036 $339,000 2,847 sq. ft. 7,405 sq. ft. $119
2018-10-11 Single Family Traditional 4661 Hearthstone Drive Frisco, TX 75034 $344,900 2,273 sq. ft. 5,663 sq. ft. $152
2018-10-11 Single Family Traditional 8052 Otis Drive Frisco, TX 75036 $385,000 2,181 sq. ft. 6,534 sq. ft. $177
2018-10-11 Single Family 1884 Marsh Point Drive Frisco, TX 75036 $288,182 1,500 sq. ft. 4,792 sq. ft. $192
2018-10-11 Single Family Traditional 13195 Terlingua Creek Drive Frisco, TX 75033 $829,900 4,591 sq. ft. 15,246 sq. ft. $181
2018-10-11 Single Family 15501 Cornwallis Street Frisco, TX 75036 $325,000 2,712 sq. ft. 436 sq. ft. $120
2018-10-11 Single Family Traditional 11432 Balcones Drive Frisco, TX 75033 $379,999 3,596 sq. ft. 5,663 sq. ft. $106
2018-10-10 Single Family 7971 Mckamy Drive Frisco, TX 75036 $435,000 3,772 sq. ft. 8,712 sq. ft. $115
2018-10-10 Single Family Traditional 118 Timber Creek Lane Frisco, TX 75068 $489,077 3,897 sq. ft. 7,841 sq. ft. $126
2018-10-10 Single Family Traditional 429 Timber Creek Lane Frisco, TX 75068 $499,729 3,897 sq. ft. 7,841 sq. ft. $128
2018-10-10 Single Family Traditional 7846 Creekview Drive Frisco, TX 75034 $289,900 1,854 sq. ft. 7,405 sq. ft. $156
2018-10-10 Single Family Traditional 11083 Lockshire Drive Frisco, TX 75035 $289,900 2,212 sq. ft. 6,970 sq. ft. $131
2018-10-10 Single Family Traditional 4163 Peace Drive Frisco, TX 75034 $415,000 3,474 sq. ft. 8,276 sq. ft. $119
2018-10-10 Single Family 11129 Elizabeth Avenue Frisco, TX 75035 $295,000 2,214 sq. ft. 3,920 sq. ft. $133
2018-10-09 Single Family Traditional 12562 Murray Lane Frisco, TX 75035 $436,825 2,609 sq. ft. 2,614 sq. ft. $167
2018-10-09 Single Family 12548 Akenside Road Frisco, TX 75035 $434,735 2,609 sq. ft. 2,614 sq. ft. $167
2018-10-09 Single Family Traditional 7445 Pasatiempo Drive Frisco, TX 75036 $345,000 1,786 sq. ft. 7,405 sq. ft. $193
2018-10-09 Single Family Traditional 7661 Big Buckle Drive Frisco, TX 75036 $750,000 4,486 sq. ft. 11,326 sq. ft. $167
2018-10-09 Single Family Traditional 6719 Garrett River Road Frisco, TX 75036 $825,000 4,331 sq. ft. 10,890 sq. ft. $190
2018-10-09 Single Family Traditional 11213 Powder Horn Lane Frisco, TX 75033 $599,000 4,326 sq. ft. 7,841 sq. ft. $138
2018-10-09 Single Family Traditional 12030 Mimosa Lane Frisco, TX 75036 $264,900 1,300 sq. ft. 17,860 sq. ft. $204
2018-10-09 Single Family Traditional 14192 Berryfield Lane Frisco, TX 75035 $547,820 2,892 sq. ft. 8,276 sq. ft. $189
2018-10-09 Single Family Traditional 3735 Neptune Circle Frisco, TX 75033 $372,500 2,834 sq. ft. 10,454 sq. ft. $131
2018-10-08 Single Family Traditional 11204 Williamsburg Lane Frisco, TX 75035 $429,000 3,182 sq. ft. 7,405 sq. ft. $135
2018-10-08 Single Family 13931 Port Edwards Lane Frisco, TX 75033 $449,000 4,303 sq. ft. 7,841 sq. ft. $104
2018-10-08 Single Family 11565 La Cantera Trail Frisco, TX 75033 $700,000 4,353 sq. ft. 9,583 sq. ft. $161
2018-10-08 Single Family Traditional 14155 Gatewood Lane Frisco, TX 75035 $600,710 3,515 sq. ft. 6,970 sq. ft. $171
2018-10-08 Single Family Traditional 14178 Berryfield Lane Frisco, TX 75035 $593,940 3,645 sq. ft. 6,970 sq. ft. $163
2018-10-08 Single Family Traditional 4643 Pine Valley Drive Frisco, TX 75034 $950,000 4,708 sq. ft. 16,117 sq. ft. $202
2018-10-07 Single Family Traditional 1637 Harbor Springs Drive Frisco, TX 75036 $599,900 2,693 sq. ft. 8,276 sq. ft. $223
2018-10-06 Single Family Traditional 3207 Birchridge Drive Frisco, TX 75033 $359,000 2,480 sq. ft. 7,405 sq. ft. $145
2018-10-06 Single Family Traditional 11534 Alejandra Lane Frisco, TX 75035 $474,900 3,261 sq. ft. 8,712 sq. ft. $146
2018-10-06 Single Family Mediterranean 4171 Mission Avenue Frisco, TX 75034 $834,990 4,411 sq. ft. $189
2018-10-06 Single Family 2160 Tumblegrass Road Frisco, TX 75033 $486,990 3,098 sq. ft. $157
2018-10-05 Single Family 2132 Tumblegrass Frisco, TX 75033 $509,990 3,549 sq. ft. $144
2018-10-05 Single Family Traditional 5546 Foard Drive Frisco, TX 75034 $699,000 3,616 sq. ft. 8,712 sq. ft. $193
2018-10-05 Single Family Traditional 3782 Briar Tree Lane Frisco, TX 75034 $899,900 4,993 sq. ft. 12,197 sq. ft. $180
2018-10-05 Single Family Traditional 13553 Valley Mills Drive Frisco, TX 75033 $329,900 3,145 sq. ft. 7,405 sq. ft. $105
2018-10-05 Single Family Traditional 10382 Omega Lane Frisco, TX 75035 $417,999 2,310 sq. ft. 7,841 sq. ft. $181
2018-10-05 Single Family Traditional 842 Quarter Horse Lane Frisco, TX 75036 $549,900 2,502 sq. ft. $220
2018-10-05 Single Family Traditional 14256 Cottontail Drive Frisco, TX 75033 $429,072 2,845 sq. ft. 6,534 sq. ft. $151
2018-10-05 Single Family Traditional 8806 Oakwood Lane Frisco, TX 75035 $275,000 1,745 sq. ft. 7,405 sq. ft. $158
2018-10-05 Single Family Craftsman; Traditional 3659 San Gabriel Avenue Frisco, TX 75033 $714,900 3,295 sq. ft. 8,276 sq. ft. $217
2018-10-05 Single Family Traditional 13188 Alvarado Lane Frisco, TX 75035 $495,950 4,033 sq. ft. 6,098 sq. ft. $123
2018-10-05 Single Family Traditional 14132 Steadman Drive Frisco, TX 75035 $489,950 3,700 sq. ft. 7,841 sq. ft. $132
2018-10-05 Single Family Traditional 10608 Providence Drive Frisco, TX 75035 $449,998 4,236 sq. ft. 6,970 sq. ft. $106
2018-10-05 Single Family 12918 Alta Badia Avenue Frisco, TX 75035 $599,900 4,474 sq. ft. 10,019 sq. ft. $134
2018-10-04 Single Family Traditional 4126 Honor Drive Frisco, TX 75034 $455,000 3,577 sq. ft. 8,712 sq. ft. $127
2018-10-04 Single Family Traditional 12732 Hollister Drive Frisco, TX 75033 $369,900 2,250 sq. ft. 8,276 sq. ft. $164
2018-10-04 Single Family Contemporary/Modern 4009 Starling Drive Frisco, TX 75034 $4,995,000 8,036 sq. ft. 46,174 sq. ft. $622
2018-10-04 Single Family Traditional 7677 Jodpur Lane Frisco, TX 75036 $749,900 3,796 sq. ft. $198
2018-10-04 Single Family Traditional 14956 Foxbriar Lane Frisco, TX 75035 $521,000 4,132 sq. ft. 8,712 sq. ft. $126
2018-10-04 Single Family 9835 King Louis Drive Frisco, TX 75033 $309,500 1,919 sq. ft. 9,148 sq. ft. $161
2018-10-04 Single Family Traditional 15908 Weymouth Drive Frisco, TX 75036 $299,000 2,033 sq. ft. 5,663 sq. ft. $147
2018-10-04 Single Family Traditional 12312 Chattanooga Drive Frisco, TX 75035 $360,000 2,680 sq. ft. 6,970 sq. ft. $134
2018-10-04 Single Family Traditional 6616 Excelsior Place Frisco, TX 75035 $594,990 3,895 sq. ft. 7,841 sq. ft. $153
2018-10-04 Single Family Mediterranean 4553 Florence Drive Frisco, TX 75034 $795,000 3,845 sq. ft. 9,148 sq. ft. $207
2018-10-04 Single Family Traditional 4019 Victory Drive Frisco, TX 75034 $479,999 3,980 sq. ft. 7,405 sq. ft. $121
2018-10-04 Single Family Craftsman 8721 6th Street Frisco, TX 75034 $669,000 2,576 sq. ft. 5,227 sq. ft. $260
2018-10-03 Single Family 7531 Saint Stephens Square Frisco, TX 75035 $299,000 1,785 sq. ft. 3,920 sq. ft. $168
2018-10-03 Single Family Traditional 20012 Snug Harbor Lane Frisco, TX 75036 $359,000 2,128 sq. ft. 16,553 sq. ft. $169
2018-10-03 Single Family Mediterranean 4774 Longvue Drive Frisco, TX 75034 $1,590,000 6,911 sq. ft. 13,068 sq. ft. $230
2018-10-03 Single Family Traditional 6464 Sundown Trail Frisco, TX 75034 $544,900 3,018 sq. ft. 12,197 sq. ft. $181
2018-10-03 Single Family Traditional 11121 Medallion Lane Frisco, TX 75035 $699,000 4,060 sq. ft. 10,890 sq. ft. $172
2018-10-03 Single Family Traditional 10450 Blackenhurst Lane Frisco, TX 75033 $1,049,000 5,509 sq. ft. 11,761 sq. ft. $190
2018-10-03 Single Family Mediterranean 5378 Beacon Hill Drive Frisco, TX 75036 $1,149,000 6,227 sq. ft. 10,890 sq. ft. $185
2018-10-03 Single Family Traditional 3454 Somerset Lane Frisco, TX 75033 $374,900 3,003 sq. ft. 6,534 sq. ft. $125
2018-10-03 Single Family Traditional 12594 Riverhill Road Frisco, TX 75033 $1,095,000 5,046 sq. ft. 13,504 sq. ft. $217
2018-10-02 Single Family Traditional 2041 Snapdragon Road Frisco, TX 75033 $549,900 3,145 sq. ft. $175
2018-10-02 Single Family Traditional 2174 Savannah Oak Road Frisco, TX 75033 $574,900 3,399 sq. ft. $169
2018-10-02 Single Family Traditional 13269 Roadster Drive Frisco, TX 75033 $399,000 3,354 sq. ft. 6,534 sq. ft. $119
2018-10-02 Single Family Traditional 10344 Glean Street Frisco, TX 75035 $435,999 2,870 sq. ft. 7,841 sq. ft. $152
2018-10-02 Single Family Traditional 10371 Colgate Court Frisco, TX 75035 $467,999 3,536 sq. ft. 7,841 sq. ft. $132
2018-10-02 Single Family Traditional 15410 Christopher Lane Frisco, TX 75035 $575,000 4,549 sq. ft. 9,148 sq. ft. $126
2018-10-02 Single Family Traditional 16332 Moss Haven Lane Frisco, TX 75068 $449,000 3,564 sq. ft. 7,841 sq. ft. $126
2018-10-02 Single Family Contemporary/Modern 7508 Acorn Frisco, TX 75034 $499,900 2,510 sq. ft. 7,841 sq. ft. $199
2018-10-02 Single Family Traditional 9248 Park Garden Drive Frisco, TX 75035 $327,995 2,110 sq. ft. 3,920 sq. ft. $155
2018-10-01 Single Family Traditional 7163 Glen Abbey Court Frisco, TX 75036 $555,000 2,786 sq. ft. 9,148 sq. ft. $199
2018-10-01 Single Family Traditional 8118 Rabbit Drive Frisco, TX 75034 $357,990 1,647 sq. ft. $217
2018-10-01 Single Family Traditional 8066 Rabbit Drive Frisco, TX 75034 $373,990 1,694 sq. ft. $221
2018-10-01 Single Family Traditional 8092 Rabbit Drive Frisco, TX 75034 $383,990 1,855 sq. ft. $207
2018-10-01 Single Family Traditional 8040 Rabbit Drive Frisco, TX 75034 $421,990 2,414 sq. ft. $175
2018-10-01 Single Family Traditional 2354 Creek Drive Frisco, TX 75033 $875,000 5,285 sq. ft. 13,068 sq. ft. $166
2018-10-01 Single Family Traditional 4800 Star Ridge Lane Frisco, TX 75034 $1,100,000 5,159 sq. ft. 16,553 sq. ft. $213
2018-10-01 Single Family Traditional 8400 Beartooth Drive Frisco, TX 75036 $374,900 2,757 sq. ft. 7,841 sq. ft. $136
2018-10-01 Single Family Traditional 11320 Berkeley Hall Lane Frisco, TX 75033 $550,000 3,998 sq. ft. 7,405 sq. ft. $138
2018-10-01 Single Family Traditional 11912 Summer Springs Drive Frisco, TX 75036 $290,000 1,977 sq. ft. 5,663 sq. ft. $147
2018-09-30 Single Family 4471 Explorer Drive Frisco, TX 75034 $360,000 3,051 sq. ft. 8,712 sq. ft. $118
2018-09-30 Single Family 7271 Bramblebush Drive Frisco, TX 75034 $329,500 2,727 sq. ft. 6,534 sq. ft. $121
2018-09-29 Single Family Traditional 7897 Southmark Drive Frisco, TX 75035 $309,900 1,793 sq. ft. 3,920 sq. ft. $173
2018-09-28 Single Family 6919 Deloach Court Frisco, TX 75034 $1,699,000 7,921 sq. ft. 18,295 sq. ft. $214
2018-09-28 Single Family Traditional 3019 Brianna Drive Frisco, TX 75033 $575,000 4,687 sq. ft. 16,553 sq. ft. $123
2018-09-28 Single Family Traditional 11612 Charlotte Lane Frisco, TX 75035 $325,000 2,173 sq. ft. 6,534 sq. ft. $150
2018-09-28 Single Family Traditional 11562 Corsicana Drive Frisco, TX 75035 $375,000 3,238 sq. ft. 7,405 sq. ft. $116
2018-09-28 Single Family Traditional 974 Centennial Mill Lane Frisco, TX 75036 $355,000 1,786 sq. ft. 6,534 sq. ft. $199
2018-09-28 Single Family French 4150 Newman Boulevard Frisco, TX 75033 $1,850,000 6,380 sq. ft. 16,553 sq. ft. $290
2018-09-28 Single Family Traditional 14317 Speargrass Drive Frisco, TX 75033 $409,990 2,849 sq. ft. 6,534 sq. ft. $144
2018-09-28 Single Family Traditional 4512 Coney Island Drive Frisco, TX 75036 $278,000 1,827 sq. ft. 5,663 sq. ft. $152
2018-09-28 Single Family 1329 Dulverton Drive Frisco, TX 75033 $552,893 3,372 sq. ft. 8,276 sq. ft. $164
2018-09-28 Single Family 16380 Radstock Road Frisco, TX 75033 $569,922 4,087 sq. ft. 8,276 sq. ft. $139
2018-09-28 Single Family Traditional 1649 Morris Lane Frisco, TX 75034 $539,990 3,430 sq. ft. 6,970 sq. ft. $157
2018-09-28 Single Family 1340 Brent Knoll Drive Frisco, TX 75033 $549,712 3,601 sq. ft. 8,712 sq. ft. $153
2018-09-28 Single Family 16362 Radstock Road Frisco, TX 75033 $568,923 3,954 sq. ft. 8,276 sq. ft. $144
2018-09-28 Single Family Traditional 14551 Daneway Drive Frisco, TX 75035 $410,000 3,803 sq. ft. 7,841 sq. ft. $108
2018-09-28 Single Family Traditional 3635 Hickory Grove Frisco, TX 75033 $625,000 2,823 sq. ft. 8,712 sq. ft. $221
2018-09-28 Single Family Traditional 1614 Wildfire Lane Frisco, TX 75033 $499,000 4,113 sq. ft. 10,454 sq. ft. $121
2018-09-28 Single Family 11455 Glen Rose Drive Frisco, TX 75035 $400,000 3,815 sq. ft. 6,534 sq. ft. $105
2018-09-28 Single Family Traditional 5 Fairway Drive Frisco, TX 75034 $587,000 2,938 sq. ft. 7,841 sq. ft. $200
2018-09-27 Single Family 10998 Funny Cide View Frisco, TX 75035 $1,008,000 5,068 sq. ft. 18,295 sq. ft. $199
2018-09-27 Single Family 6383 Francis Lane Frisco, TX 75035 $977,944 5,552 sq. ft. 12,197 sq. ft. $176
2018-09-27 Single Family 11190 Aristides Frisco, TX 75035 $938,427 5,527 sq. ft. 14,375 sq. ft. $170
2018-09-27 Single Family Traditional 3550 Harvest Glen Drive Frisco, TX 75034 $650,000 3,752 sq. ft. 8,276 sq. ft. $173
2018-09-27 Single Family Traditional 8506 Prescott Circle Frisco, TX 75033 $359,900 3,317 sq. ft. 8,712 sq. ft. $108
2018-09-27 Single Family Traditional 4117 Tanglewood Lane Frisco, TX 75035 $375,000 2,606 sq. ft. 12,197 sq. ft. $144
2018-09-27 Single Family 2010 Marsh Point Drive Frisco, TX 75036 $307,317 1,670 sq. ft. 4,792 sq. ft. $184